This is the latest recevied weather packets stored in our database for station/object K4PAD. If no packets are shown the sender has not sent any weather packets the latest 10 day(s).
| Time | Temp. | Humidity | Pressure | Rain* | Wind** | Luminosity | Snow |
|---|---|---|---|---|---|---|---|
| 1777988541 | 24.44° C | 59% | 1018.6 hPa | 0 mm | - | 541 W/m² | - |
| 1777988238 | 24.44° C | 58% | 1018.6 hPa | 0 mm | - | 524 W/m² | - |
| 1777987934 | 24.44° C | 61% | 1018.5 hPa | 0 mm | - | 502 W/m² | - |
| 1777987630 | 24.44° C | 60% | 1018.5 hPa | 0 mm | - | 481 W/m² | - |
| 1777987328 | 24.44° C | 61% | 1018.5 hPa | 0 mm | - | 460 W/m² | - |
| 1777987025 | 23.89° C | 63% | 1018.5 hPa | 0 mm | - | 440 W/m² | - |
| 1777986722 | 23.89° C | 63% | 1018.3 hPa | 0 mm | - | 417 W/m² | - |
| 1777986420 | 23.33° C | 64% | 1018.2 hPa | 0 mm | - | 391 W/m² | - |
| 1777986118 | 23.33° C | 66% | 1018.3 hPa | 0 mm | - | 370 W/m² | - |
| 1777985815 | 22.78° C | 69% | 1018.3 hPa | 0 mm | - | 351 W/m² | - |
| 1777985512 | 22.22° C | 71% | 1018.2 hPa | 0 mm | - | 306 W/m² | - |
| 1777985208 | 21.67° C | 73% | 1018.1 hPa | 0 mm | - | 218 W/m² | - |
| 1777984905 | 20.56° C | 79% | 1018.2 hPa | 0 mm | - | 178 W/m² | - |
| 1777984601 | 19.44° C | 82% | 1018.3 hPa | 0 mm | - | 67 W/m² | - |
| 1777984299 | 18.89° C | 86% | 1018.3 hPa | 0 mm | - | 61 W/m² | - |
| 1777983994 | 17.78° C | 90% | 1018.2 hPa | 0 mm | - | 71 W/m² | - |
| 1777983692 | 17.22° C | 93% | 1018.4 hPa | 0 mm | - | 52 W/m² | - |
| 1777983388 | 16.67° C | 95% | 1018.5 hPa | 0 mm | - | 73 W/m² | - |
| 1777983080 | 16.11° C | 97% | 1018.6 hPa | 0 mm | - | 78 W/m² | - |
| 1777982776 | 15.56° C | 97% | 1018.1 hPa | 0 mm | - | 85 W/m² | - |
| 1777982472 | 15° C | 97% | 1018.1 hPa | 0 mm | - | 53 W/m² | - |
| 1777982172 | 15° C | 97% | 1018.1 hPa | 0 mm | - | 62 W/m² | - |
| 1777981869 | 15° C | 97% | 1018.1 hPa | 0 mm | - | 41 W/m² | - |
| 1777981566 | 14.44° C | 97% | 1017.9 hPa | 0 mm | - | 43 W/m² | - |
| 1777981262 | 13.89° C | 97% | 1017.8 hPa | 0 mm | - | 41 W/m² | - |
* Rain latest hour (hover to see other rain measurements)
** Current wind speed in m/s (hover to see current wind gust speed)